sensor_id;sensor_type;location;lat;lon;timestamp;pressure;altitude;pressure_sealevel;temperature;humidity
10652;BME280;5374;42.742;23.266;2024-03-06T00:01:51;95169.94;;;5.73;94.11
10652;BME280;5374;42.742;23.266;2024-03-06T00:04:38;95188.72;;;5.77;94.23
10652;BME280;5374;42.742;23.266;2024-03-06T00:07:26;95166.94;;;5.70;94.62
10652;BME280;5374;42.742;23.266;2024-03-06T00:10:13;95164.97;;;5.65;95.09
10652;BME280;5374;42.742;23.266;2024-03-06T00:13:00;95215.97;;;6.12;94.75
10652;BME280;5374;42.742;23.266;2024-03-06T00:15:49;95215.88;;;6.07;95.49
10652;BME280;5374;42.742;23.266;2024-03-06T00:18:36;95216.53;;;6.03;96.38
10652;BME280;5374;42.742;23.266;2024-03-06T00:21:24;95146.28;;;5.55;96.64
10652;BME280;5374;42.742;23.266;2024-03-06T00:24:11;95159.69;;;5.54;97.44
10652;BME280;5374;42.742;23.266;2024-03-06T00:26:59;95188.06;;;5.81;98.40
10652;BME280;5374;42.742;23.266;2024-03-06T00:29:47;95177.38;;;5.65;98.74
10652;BME280;5374;42.742;23.266;2024-03-06T00:32:35;95164.38;;;5.52;99.90
10652;BME280;5374;42.742;23.266;2024-03-06T00:35:22;95174.00;;;5.58;100.00
10652;BME280;5374;42.742;23.266;2024-03-06T00:38:10;95195.56;;;5.66;100.00
10652;BME280;5374;42.742;23.266;2024-03-06T00:40:57;95156.38;;;5.58;100.00
10652;BME280;5374;42.742;23.266;2024-03-06T00:43:44;95218.09;;;5.92;100.00
10652;BME280;5374;42.742;23.266;2024-03-06T00:46:31;95161.03;;;5.44;100.00
10652;BME280;5374;42.742;23.266;2024-03-06T00:49:19;95223.47;;;5.86;100.00
10652;BME280;5374;42.742;23.266;2024-03-06T00:52:06;95184.19;;;5.54;100.00
10652;BME280;5374;42.742;23.266;2024-03-06T00:54:55;95200.59;;;5.68;100.00
10652;BME280;5374;42.742;23.266;2024-03-06T00:57:42;95206.22;;;5.71;100.00
10652;BME280;5374;42.742;23.266;2024-03-06T01:00:29;95207.53;;;5.80;100.00
10652;BME280;5374;42.742;23.266;2024-03-06T01:03:16;95165.84;;;5.47;100.00
10652;BME280;5374;42.742;23.266;2024-03-06T01:06:05;95159.31;;;5.38;100.00
10652;BME280;5374;42.742;23.266;2024-03-06T01:08:52;95195.44;;;5.61;100.00
10652;BME280;5374;42.742;23.266;2024-03-06T01:11:40;95213.69;;;5.74;100.00
10652;BME280;5374;42.742;23.266;2024-03-06T01:14:27;95203.44;;;5.55;100.00
10652;BME280;5374;42.742;23.266;2024-03-06T01:17:14;95218.59;;;5.71;100.00
10652;BME280;5374;42.742;23.266;2024-03-06T01:20:02;95149.00;;;5.07;100.00
10652;BME280;5374;42.742;23.266;2024-03-06T01:22:53;95211.34;;;5.66;100.00
10652;BME280;5374;42.742;23.266;2024-03-06T01:25:41;95157.19;;;5.29;100.00
10652;BME280;5374;42.742;23.266;2024-03-06T01:28:28;95139.84;;;5.09;100.00
10652;BME280;5374;42.742;23.266;2024-03-06T01:31:15;95155.78;;;5.14;100.00
10652;BME280;5374;42.742;23.266;2024-03-06T01:34:02;95210.94;;;5.39;100.00
10652;BME280;5374;42.742;23.266;2024-03-06T01:36:49;95149.72;;;5.14;100.00
10652;BME280;5374;42.742;23.266;2024-03-06T01:39:37;95204.88;;;5.39;100.00
10652;BME280;5374;42.742;23.266;2024-03-06T01:42:25;95176.72;;;5.21;100.00
10652;BME280;5374;42.742;23.266;2024-03-06T01:45:12;95218.38;;;5.42;100.00
10652;BME280;5374;42.742;23.266;2024-03-06T01:47:59;95225.50;;;5.42;100.00
10652;BME280;5374;42.742;23.266;2024-03-06T01:50:46;95196.78;;;5.04;100.00
10652;BME280;5374;42.742;23.266;2024-03-06T01:53:34;95208.78;;;5.18;100.00
10652;BME280;5374;42.742;23.266;2024-03-06T01:56:23;95169.19;;;4.76;100.00
10652;BME280;5374;42.742;23.266;2024-03-06T01:59:13;95236.38;;;5.27;100.00
10652;BME280;5374;42.742;23.266;2024-03-06T02:02:02;95175.72;;;4.74;100.00
10652;BME280;5374;42.742;23.266;2024-03-06T02:04:52;95196.16;;;4.72;100.00
10652;BME280;5374;42.742;23.266;2024-03-06T02:07:42;95168.03;;;4.72;100.00
10652;BME280;5374;42.742;23.266;2024-03-06T02:10:30;95176.47;;;4.74;100.00
10652;BME280;5374;42.742;23.266;2024-03-06T02:13:18;95195.94;;;4.73;100.00
10652;BME280;5374;42.742;23.266;2024-03-06T02:16:06;95223.75;;;4.81;100.00
10652;BME280;5374;42.742;23.266;2024-03-06T02:18:54;95213.50;;;4.55;100.00
10652;BME280;5374;42.742;23.266;2024-03-06T02:21:43;95180.97;;;4.31;100.00
10652;BME280;5374;42.742;23.266;2024-03-06T02:24:31;95258.13;;;4.86;100.00
10652;BME280;5374;42.742;23.266;2024-03-06T02:27:18;95243.28;;;4.73;100.00
10652;BME280;5374;42.742;23.266;2024-03-06T02:30:06;95236.63;;;4.71;100.00
10652;BME280;5374;42.742;23.266;2024-03-06T02:32:54;95195.88;;;4.37;100.00
10652;BME280;5374;42.742;23.266;2024-03-06T02:35:41;95234.69;;;4.60;100.00
10652;BME280;5374;42.742;23.266;2024-03-06T02:38:31;95179.88;;;4.20;100.00
10652;BME280;5374;42.742;23.266;2024-03-06T02:41:18;95225.72;;;4.49;100.00
10652;BME280;5374;42.742;23.266;2024-03-06T02:44:06;95261.97;;;4.65;100.00
10652;BME280;5374;42.742;23.266;2024-03-06T02:46:53;95244.34;;;4.47;100.00
10652;BME280;5374;42.742;23.266;2024-03-06T02:49:40;95221.38;;;4.36;100.00
10652;BME280;5374;42.742;23.266;2024-03-06T02:52:27;95190.59;;;4.19;100.00
10652;BME280;5374;42.742;23.266;2024-03-06T02:55:16;95257.41;;;4.54;100.00
10652;BME280;5374;42.742;23.266;2024-03-06T02:58:03;95263.13;;;4.51;100.00
10652;BME280;5374;42.742;23.266;2024-03-06T03:00:50;95161.16;;;3.85;100.00
10652;BME280;5374;42.742;23.266;2024-03-06T03:03:40;95181.06;;;3.99;100.00
10652;BME280;5374;42.742;23.266;2024-03-06T03:06:27;95183.69;;;3.99;100.00
10652;BME280;5374;42.742;23.266;2024-03-06T03:09:14;95269.19;;;4.52;100.00
10652;BME280;5374;42.742;23.266;2024-03-06T03:12:03;95185.72;;;3.97;100.00
10652;BME280;5374;42.742;23.266;2024-03-06T03:14:50;95208.53;;;4.03;100.00
10652;BME280;5374;42.742;23.266;2024-03-06T03:17:38;95218.47;;;3.95;100.00
10652;BME280;5374;42.742;23.266;2024-03-06T03:20:25;95167.38;;;3.66;100.00
10652;BME280;5374;42.742;23.266;2024-03-06T03:23:12;95257.19;;;4.31;100.00
10652;BME280;5374;42.742;23.266;2024-03-06T03:26:01;95283.81;;;4.41;100.00
10652;BME280;5374;42.742;23.266;2024-03-06T03:28:51;95203.91;;;3.99;100.00
10652;BME280;5374;42.742;23.266;2024-03-06T03:31:38;95221.13;;;3.95;100.00
10652;BME280;5374;42.742;23.266;2024-03-06T03:34:25;95274.75;;;4.37;100.00
10652;BME280;5374;42.742;23.266;2024-03-06T03:37:13;95280.38;;;4.40;100.00
10652;BME280;5374;42.742;23.266;2024-03-06T03:40:00;95247.41;;;4.20;100.00
10652;BME280;5374;42.742;23.266;2024-03-06T03:42:48;95235.94;;;4.07;100.00
10652;BME280;5374;42.742;23.266;2024-03-06T03:45:37;95216.06;;;3.93;100.00
10652;BME280;5374;42.742;23.266;2024-03-06T03:48:24;95230.44;;;3.91;100.00
10652;BME280;5374;42.742;23.266;2024-03-06T03:51:11;95253.66;;;3.94;100.00
10652;BME280;5374;42.742;23.266;2024-03-06T03:53:58;95241.50;;;3.99;100.00
10652;BME280;5374;42.742;23.266;2024-03-06T03:56:46;95213.81;;;3.72;100.00
10652;BME280;5374;42.742;23.266;2024-03-06T03:59:33;95217.94;;;3.86;100.00
10652;BME280;5374;42.742;23.266;2024-03-06T04:02:22;95270.56;;;4.04;100.00
10652;BME280;5374;42.742;23.266;2024-03-06T04:05:09;95220.91;;;3.96;100.00
10652;BME280;5374;42.742;23.266;2024-03-06T04:07:56;95257.69;;;3.96;100.00
10652;BME280;5374;42.742;23.266;2024-03-06T04:10:43;95290.34;;;4.32;100.00
10652;BME280;5374;42.742;23.266;2024-03-06T04:13:35;95283.75;;;4.23;100.00
10652;BME280;5374;42.742;23.266;2024-03-06T04:16:24;95234.97;;;3.77;100.00
10652;BME280;5374;42.742;23.266;2024-03-06T04:19:13;95307.03;;;4.19;100.00
10652;BME280;5374;42.742;23.266;2024-03-06T04:22:00;95283.13;;;3.96;100.00
10652;BME280;5374;42.742;23.266;2024-03-06T04:24:48;95250.13;;;3.75;100.00
10652;BME280;5374;42.742;23.266;2024-03-06T04:27:35;95290.97;;;4.02;100.00
10652;BME280;5374;42.742;23.266;2024-03-06T04:30:22;95314.09;;;4.19;100.00
10652;BME280;5374;42.742;23.266;2024-03-06T04:33:10;95240.84;;;3.72;100.00
10652;BME280;5374;42.742;23.266;2024-03-06T04:36:04;95256.03;;;3.64;100.00
10652;BME280;5374;42.742;23.266;2024-03-06T04:38:53;95326.47;;;4.11;100.00
10652;BME280;5374;42.742;23.266;2024-03-06T04:41:40;95238.38;;;3.46;100.00
10652;BME280;5374;42.742;23.266;2024-03-06T04:44:28;95308.19;;;3.98;100.00
10652;BME280;5374;42.742;23.266;2024-03-06T04:47:15;95266.72;;;3.69;100.00
10652;BME280;5374;42.742;23.266;2024-03-06T04:50:03;95327.66;;;4.16;100.00
10652;BME280;5374;42.742;23.266;2024-03-06T04:52:51;95286.06;;;3.81;100.00
10652;BME280;5374;42.742;23.266;2024-03-06T04:55:39;95310.91;;;4.10;100.00
10652;BME280;5374;42.742;23.266;2024-03-06T04:58:27;95263.03;;;3.83;100.00
10652;BME280;5374;42.742;23.266;2024-03-06T05:01:14;95284.38;;;3.93;100.00
10652;BME280;5374;42.742;23.266;2024-03-06T05:04:01;95284.28;;;4.06;100.00
10652;BME280;5374;42.742;23.266;2024-03-06T05:06:49;95269.38;;;4.00;100.00
10652;BME280;5374;42.742;23.266;2024-03-06T05:09:38;95338.59;;;4.44;100.00
10652;BME280;5374;42.742;23.266;2024-03-06T05:12:27;95243.19;;;3.87;100.00
10652;BME280;5374;42.742;23.266;2024-03-06T05:15:15;95330.38;;;4.59;100.00
10652;BME280;5374;42.742;23.266;2024-03-06T05:18:02;95253.88;;;4.17;100.00
10652;BME280;5374;42.742;23.266;2024-03-06T05:20:49;95295.22;;;4.53;100.00
10652;BME280;5374;42.742;23.266;2024-03-06T05:23:37;95294.00;;;4.56;100.00
10652;BME280;5374;42.742;23.266;2024-03-06T05:26:33;95328.38;;;4.79;100.00
10652;BME280;5374;42.742;23.266;2024-03-06T05:29:20;95295.22;;;4.78;100.00
10652;BME280;5374;42.742;23.266;2024-03-06T05:32:10;95241.75;;;4.41;100.00
10652;BME280;5374;42.742;23.266;2024-03-06T05:35:02;95239.09;;;4.66;100.00
10652;BME280;5374;42.742;23.266;2024-03-06T05:38:03;95344.47;;;5.32;100.00
10652;BME280;5374;42.742;23.266;2024-03-06T05:40:50;95350.09;;;5.36;100.00
10652;BME280;5374;42.742;23.266;2024-03-06T05:43:39;95347.31;;;5.49;100.00
10652;BME280;5374;42.742;23.266;2024-03-06T05:46:27;95340.00;;;5.51;100.00
10652;BME280;5374;42.742;23.266;2024-03-06T05:49:14;95335.38;;;5.46;100.00
10652;BME280;5374;42.742;23.266;2024-03-06T05:52:01;95344.31;;;5.64;100.00
10652;BME280;5374;42.742;23.266;2024-03-06T05:54:48;95368.38;;;5.86;100.00
10652;BME280;5374;42.742;23.266;2024-03-06T05:57:36;95344.75;;;5.79;100.00
10652;BME280;5374;42.742;23.266;2024-03-06T06:00:25;95366.09;;;6.07;100.00
10652;BME280;5374;42.742;23.266;2024-03-06T06:03:12;95372.72;;;6.28;100.00
10652;BME280;5374;42.742;23.266;2024-03-06T06:05:59;95369.13;;;6.53;100.00
10652;BME280;5374;42.742;23.266;2024-03-06T06:08:46;95373.44;;;7.00;98.23
10652;BME280;5374;42.742;23.266;2024-03-06T06:11:33;95358.44;;;7.76;92.43
10652;BME280;5374;42.742;23.266;2024-03-06T06:14:22;95369.94;;;8.67;86.10
10652;BME280;5374;42.742;23.266;2024-03-06T06:17:10;95364.50;;;9.23;78.58
10652;BME280;5374;42.742;23.266;2024-03-06T06:19:59;95374.88;;;9.85;74.78
10652;BME280;5374;42.742;23.266;2024-03-06T06:22:46;95345.69;;;10.29;70.74
10652;BME280;5374;42.742;23.266;2024-03-06T06:25:34;95367.44;;;11.17;66.45
10652;BME280;5374;42.742;23.266;2024-03-06T06:28:21;95364.41;;;11.82;63.01
10652;BME280;5374;42.742;23.266;2024-03-06T06:31:09;95361.75;;;12.55;59.62
10652;BME280;5374;42.742;23.266;2024-03-06T06:33:57;95360.75;;;13.17;56.54
10652;BME280;5374;42.742;23.266;2024-03-06T06:36:45;95346.75;;;13.81;54.29
10652;BME280;5374;42.742;23.266;2024-03-06T06:39:32;95359.84;;;14.52;52.38
10652;BME280;5374;42.742;23.266;2024-03-06T06:42:20;95372.31;;;15.11;50.64
10652;BME280;5374;42.742;23.266;2024-03-06T06:45:08;95388.31;;;15.79;47.97
10652;BME280;5374;42.742;23.266;2024-03-06T06:47:55;95382.13;;;16.50;47.10
10652;BME280;5374;42.742;23.266;2024-03-06T06:50:44;95392.09;;;17.24;45.40
10652;BME280;5374;42.742;23.266;2024-03-06T06:53:33;95380.47;;;18.21;43.12
10652;BME280;5374;42.742;23.266;2024-03-06T06:56:20;95393.47;;;19.19;40.11
10652;BME280;5374;42.742;23.266;2024-03-06T06:59:10;95381.84;;;20.07;38.57
10652;BME280;5374;42.742;23.266;2024-03-06T07:01:59;95384.72;;;20.59;37.70
10652;BME280;5374;42.742;23.266;2024-03-06T07:04:46;95384.09;;;20.54;37.38
10652;BME280;5374;42.742;23.266;2024-03-06T07:07:36;95388.56;;;19.88;37.06
10652;BME280;5374;42.742;23.266;2024-03-06T07:10:23;95399.59;;;19.77;37.83
10652;BME280;5374;42.742;23.266;2024-03-06T07:13:10;95396.31;;;19.58;38.31
10652;BME280;5374;42.742;23.266;2024-03-06T07:15:57;95391.38;;;19.83;37.69
10652;BME280;5374;42.742;23.266;2024-03-06T07:18:44;95394.72;;;19.88;37.80
10652;BME280;5374;42.742;23.266;2024-03-06T07:21:32;95401.72;;;19.44;37.81
10652;BME280;5374;42.742;23.266;2024-03-06T07:24:20;95387.81;;;18.43;39.19
10652;BME280;5374;42.742;23.266;2024-03-06T07:27:07;95368.59;;;17.95;40.09
10652;BME280;5374;42.742;23.266;2024-03-06T07:29:55;95382.97;;;17.06;41.63
10652;BME280;5374;42.742;23.266;2024-03-06T07:32:42;95389.16;;;16.88;43.42
10652;BME280;5374;42.742;23.266;2024-03-06T07:35:29;95399.38;;;16.62;44.63
10652;BME280;5374;42.742;23.266;2024-03-06T07:38:16;95392.25;;;16.53;44.13
10652;BME280;5374;42.742;23.266;2024-03-06T07:41:05;95391.22;;;16.30;44.65
10652;BME280;5374;42.742;23.266;2024-03-06T07:43:52;95398.75;;;15.80;46.28
10652;BME280;5374;42.742;23.266;2024-03-06T07:46:39;95399.44;;;15.28;47.61
10652;BME280;5374;42.742;23.266;2024-03-06T07:49:26;95401.34;;;15.22;48.44
10652;BME280;5374;42.742;23.266;2024-03-06T07:52:17;95397.25;;;14.96;49.85
10652;BME280;5374;42.742;23.266;2024-03-06T07:55:04;95385.25;;;14.93;50.99
10652;BME280;5374;42.742;23.266;2024-03-06T07:57:53;95386.31;;;14.92;50.73
10652;BME280;5374;42.742;23.266;2024-03-06T08:00:40;95386.84;;;14.94;50.96
10652;BME280;5374;42.742;23.266;2024-03-06T08:03:27;95388.69;;;14.99;51.45
10652;BME280;5374;42.742;23.266;2024-03-06T08:06:15;95362.09;;;14.79;51.49
10652;BME280;5374;42.742;23.266;2024-03-06T08:09:03;95385.22;;;14.98;52.92
10652;BME280;5374;42.742;23.266;2024-03-06T08:11:50;95384.03;;;14.76;52.00
10652;BME280;5374;42.742;23.266;2024-03-06T08:14:41;95389.06;;;14.82;52.20
10652;BME280;5374;42.742;23.266;2024-03-06T08:17:28;95382.81;;;14.53;53.03
10652;BME280;5374;42.742;23.266;2024-03-06T08:20:15;95391.69;;;14.43;53.63
10652;BME280;5374;42.742;23.266;2024-03-06T08:23:03;95389.84;;;14.44;53.84
10652;BME280;5374;42.742;23.266;2024-03-06T08:25:50;95394.31;;;14.53;55.74
10652;BME280;5374;42.742;23.266;2024-03-06T08:28:38;95381.81;;;14.44;54.92
10652;BME280;5374;42.742;23.266;2024-03-06T08:31:26;95380.94;;;14.53;55.29
10652;BME280;5374;42.742;23.266;2024-03-06T08:34:13;95385.91;;;14.70;54.48
10652;BME280;5374;42.742;23.266;2024-03-06T08:37:02;95384.41;;;14.98;54.93
10652;BME280;5374;42.742;23.266;2024-03-06T08:39:49;95365.97;;;14.96;53.75
10652;BME280;5374;42.742;23.266;2024-03-06T08:42:36;95386.69;;;15.15;54.76
10652;BME280;5374;42.742;23.266;2024-03-06T08:45:23;95386.56;;;15.35;53.82
10652;BME280;5374;42.742;23.266;2024-03-06T08:48:12;95386.13;;;15.52;52.40
10652;BME280;5374;42.742;23.266;2024-03-06T08:50:59;95384.72;;;15.59;52.07
10652;BME280;5374;42.742;23.266;2024-03-06T08:53:46;95373.13;;;15.69;52.76
10652;BME280;5374;42.742;23.266;2024-03-06T08:56:34;95366.47;;;15.66;52.01
10652;BME280;5374;42.742;23.266;2024-03-06T08:59:21;95374.81;;;15.60;52.20
10652;BME280;5374;42.742;23.266;2024-03-06T09:02:18;95375.38;;;15.28;52.76
10652;BME280;5374;42.742;23.266;2024-03-06T09:05:07;95381.09;;;15.45;51.97
10652;BME280;5374;42.742;23.266;2024-03-06T09:07:56;95385.28;;;15.27;56.33
10652;BME280;5374;42.742;23.266;2024-03-06T09:10:44;95380.53;;;15.48;54.68
10652;BME280;5374;42.742;23.266;2024-03-06T09:13:31;95373.25;;;15.25;54.21
10652;BME280;5374;42.742;23.266;2024-03-06T09:16:18;95373.53;;;15.57;53.47
10652;BME280;5374;42.742;23.266;2024-03-06T09:19:05;95357.59;;;15.71;54.43
10652;BME280;5374;42.742;23.266;2024-03-06T09:21:54;95368.22;;;15.81;52.65
10652;BME280;5374;42.742;23.266;2024-03-06T09:24:42;95366.75;;;15.36;52.68
10652;BME280;5374;42.742;23.266;2024-03-06T09:27:29;95361.50;;;15.21;55.45
10652;BME280;5374;42.742;23.266;2024-03-06T09:30:16;95360.16;;;15.57;52.19
10652;BME280;5374;42.742;23.266;2024-03-06T09:33:03;95354.69;;;15.67;52.75
10652;BME280;5374;42.742;23.266;2024-03-06T09:35:51;95360.44;;;15.22;56.36
10652;BME280;5374;42.742;23.266;2024-03-06T09:38:39;95354.81;;;15.57;54.39
10652;BME280;5374;42.742;23.266;2024-03-06T09:41:27;95350.38;;;15.71;55.09
10652;BME280;5374;42.742;23.266;2024-03-06T09:44:14;95354.69;;;15.67;53.75
10652;BME280;5374;42.742;23.266;2024-03-06T09:47:03;95349.53;;;16.00;52.51
10652;BME280;5374;42.742;23.266;2024-03-06T09:49:52;95347.66;;;16.43;51.77
10652;BME280;5374;42.742;23.266;2024-03-06T09:52:41;95342.28;;;16.62;49.02
10652;BME280;5374;42.742;23.266;2024-03-06T09:55:34;95345.84;;;16.76;48.10
10652;BME280;5374;42.742;23.266;2024-03-06T09:58:21;95341.47;;;16.66;46.43
10652;BME280;5374;42.742;23.266;2024-03-06T10:01:09;95334.31;;;16.57;48.44
10652;BME280;5374;42.742;23.266;2024-03-06T10:03:57;95332.97;;;16.78;48.42
10652;BME280;5374;42.742;23.266;2024-03-06T10:06:46;95327.47;;;16.88;47.90
10652;BME280;5374;42.742;23.266;2024-03-06T10:09:33;95315.13;;;16.87;47.76
10652;BME280;5374;42.742;23.266;2024-03-06T10:12:22;95321.75;;;17.08;47.04
10652;BME280;5374;42.742;23.266;2024-03-06T10:15:09;95313.28;;;17.34;48.79
10652;BME280;5374;42.742;23.266;2024-03-06T10:18:11;95315.25;;;17.28;47.30
10652;BME280;5374;42.742;23.266;2024-03-06T10:20:59;95303.97;;;17.45;45.97
10652;BME280;5374;42.742;23.266;2024-03-06T10:23:46;95297.66;;;17.68;45.79
10652;BME280;5374;42.742;23.266;2024-03-06T10:26:34;95303.97;;;17.45;46.11
10652;BME280;5374;42.742;23.266;2024-03-06T10:29:23;95307.09;;;17.66;47.44
10652;BME280;5374;42.742;23.266;2024-03-06T10:32:10;95302.63;;;17.89;45.10
10652;BME280;5374;42.742;23.266;2024-03-06T10:34:57;95303.63;;;17.93;44.25
10652;BME280;5374;42.742;23.266;2024-03-06T10:37:45;95282.44;;;17.91;45.23
10652;BME280;5374;42.742;23.266;2024-03-06T10:40:34;95298.19;;;17.84;43.10
10652;BME280;5374;42.742;23.266;2024-03-06T10:43:23;95286.63;;;17.84;42.28
10652;BME280;5374;42.742;23.266;2024-03-06T10:46:12;95289.69;;;17.91;43.09
10652;BME280;5374;42.742;23.266;2024-03-06T10:49:01;95279.13;;;18.08;42.61
10652;BME280;5374;42.742;23.266;2024-03-06T10:51:50;95278.31;;;18.21;42.96
10652;BME280;5374;42.742;23.266;2024-03-06T10:54:38;95274.44;;;18.27;42.62
10652;BME280;5374;42.742;23.266;2024-03-06T10:57:29;95275.00;;;18.38;42.63
10652;BME280;5374;42.742;23.266;2024-03-06T11:00:16;95265.34;;;18.37;43.12
10652;BME280;5374;42.742;23.266;2024-03-06T11:03:07;95258.94;;;18.47;41.58
10652;BME280;5374;42.742;23.266;2024-03-06T11:05:57;95252.44;;;18.61;41.36
10652;BME280;5374;42.742;23.266;2024-03-06T11:08:44;95221.91;;;18.43;41.49
10652;BME280;5374;42.742;23.266;2024-03-06T11:11:32;95246.28;;;18.61;41.21
10652;BME280;5374;42.742;23.266;2024-03-06T11:14:21;95244.59;;;18.51;41.13
10652;BME280;5374;42.742;23.266;2024-03-06T11:17:09;95242.97;;;18.64;41.29
10652;BME280;5374;42.742;23.266;2024-03-06T11:20:17;95240.84;;;18.38;41.07
10652;BME280;5374;42.742;23.266;2024-03-06T11:23:04;95229.13;;;18.57;39.52
10652;BME280;5374;42.742;23.266;2024-03-06T11:26:01;95231.28;;;18.32;39.70
10652;BME280;5374;42.742;23.266;2024-03-06T11:28:49;95229.16;;;18.21;40.45
10652;BME280;5374;42.742;23.266;2024-03-06T11:31:37;95225.03;;;17.73;40.61
10652;BME280;5374;42.742;23.266;2024-03-06T11:34:24;95225.16;;;17.82;40.59
10652;BME280;5374;42.742;23.266;2024-03-06T11:37:12;95188.53;;;17.59;42.52
10652;BME280;5374;42.742;23.266;2024-03-06T11:40:00;95211.38;;;17.97;41.39
10652;BME280;5374;42.742;23.266;2024-03-06T11:42:48;95211.22;;;18.16;40.76
10652;BME280;5374;42.742;23.266;2024-03-06T11:45:44;95184.84;;;18.18;40.18
10652;BME280;5374;42.742;23.266;2024-03-06T11:48:32;95204.78;;;18.39;39.23
10652;BME280;5374;42.742;23.266;2024-03-06T11:51:19;95206.91;;;18.06;40.43
10652;BME280;5374;42.742;23.266;2024-03-06T11:54:08;95207.69;;;18.07;39.65
10652;BME280;5374;42.742;23.266;2024-03-06T11:56:57;95191.47;;;18.34;39.17
10652;BME280;5374;42.742;23.266;2024-03-06T11:59:44;95197.44;;;18.67;37.36
10652;BME280;5374;42.742;23.266;2024-03-06T12:02:32;95177.72;;;18.81;38.67
10652;BME280;5374;42.742;23.266;2024-03-06T12:05:19;95187.28;;;18.87;37.90
10652;BME280;5374;42.742;23.266;2024-03-06T12:08:06;95191.97;;;18.59;38.46
10652;BME280;5374;42.742;23.266;2024-03-06T12:10:55;95191.72;;;18.24;37.81
10652;BME280;5374;42.742;23.266;2024-03-06T12:13:43;95200.09;;;18.09;37.87
10652;BME280;5374;42.742;23.266;2024-03-06T12:16:32;95199.25;;;18.00;38.66
10652;BME280;5374;42.742;23.266;2024-03-06T12:19:19;95190.38;;;17.86;37.79
10652;BME280;5374;42.742;23.266;2024-03-06T12:22:07;95195.59;;;17.82;42.17
10652;BME280;5374;42.742;23.266;2024-03-06T12:25:00;95205.53;;;17.27;44.70
10652;BME280;5374;42.742;23.266;2024-03-06T12:27:53;95193.31;;;16.74;46.45
10652;BME280;5374;42.742;23.266;2024-03-06T12:30:41;95200.31;;;16.19;46.97
10652;BME280;5374;42.742;23.266;2024-03-06T12:33:30;95187.34;;;15.89;48.15
10652;BME280;5374;42.742;23.266;2024-03-06T12:36:25;95177.91;;;15.54;48.97
10652;BME280;5374;42.742;23.266;2024-03-06T12:39:15;95190.47;;;15.53;49.67
10652;BME280;5374;42.742;23.266;2024-03-06T12:42:06;95161.13;;;15.24;50.36
10652;BME280;5374;42.742;23.266;2024-03-06T12:44:55;95188.28;;;15.13;49.84
10652;BME280;5374;42.742;23.266;2024-03-06T12:47:43;95185.69;;;15.02;51.69
10652;BME280;5374;42.742;23.266;2024-03-06T12:50:31;95172.03;;;14.80;53.89
10652;BME280;5374;42.742;23.266;2024-03-06T12:53:19;95177.31;;;14.85;54.41
10652;BME280;5374;42.742;23.266;2024-03-06T12:56:07;95179.47;;;14.83;53.61
10652;BME280;5374;42.742;23.266;2024-03-06T12:58:55;95189.22;;;14.69;52.30
10652;BME280;5374;42.742;23.266;2024-03-06T13:01:44;95173.53;;;14.62;53.21
10652;BME280;5374;42.742;23.266;2024-03-06T13:04:32;95176.44;;;14.66;53.46
10652;BME280;5374;42.742;23.266;2024-03-06T13:07:19;95179.84;;;14.71;53.94
10652;BME280;5374;42.742;23.266;2024-03-06T13:10:07;95180.19;;;14.65;53.71
10652;BME280;5374;42.742;23.266;2024-03-06T13:12:56;95183.94;;;14.64;54.28
10652;BME280;5374;42.742;23.266;2024-03-06T13:15:43;95177.97;;;14.72;53.60
10652;BME280;5374;42.742;23.266;2024-03-06T13:18:32;95187.69;;;14.63;52.48
10652;BME280;5374;42.742;23.266;2024-03-06T13:21:19;95180.47;;;14.63;53.01
10652;BME280;5374;42.742;23.266;2024-03-06T13:24:06;95184.22;;;14.62;53.32
10652;BME280;5374;42.742;23.266;2024-03-06T13:26:53;95180.78;;;14.57;53.13
10652;BME280;5374;42.742;23.266;2024-03-06T13:29:40;95178.69;;;14.49;53.68
10652;BME280;5374;42.742;23.266;2024-03-06T13:32:27;95177.38;;;14.46;53.36
10652;BME280;5374;42.742;23.266;2024-03-06T13:35:16;95180.13;;;14.41;52.54
10652;BME280;5374;42.742;23.266;2024-03-06T13:38:03;95172.66;;;14.33;52.81
10652;BME280;5374;42.742;23.266;2024-03-06T13:40:51;95177.72;;;14.34;52.10
10652;BME280;5374;42.742;23.266;2024-03-06T13:43:38;95185.47;;;14.36;52.29
10652;BME280;5374;42.742;23.266;2024-03-06T13:46:25;95172.66;;;14.33;52.78
10652;BME280;5374;42.742;23.266;2024-03-06T13:49:39;95175.16;;;14.58;53.31
10652;BME280;5374;42.742;23.266;2024-03-06T13:52:27;95189.19;;;14.74;53.73
10652;BME280;5374;42.742;23.266;2024-03-06T13:55:14;95169.16;;;14.71;53.96
10652;BME280;5374;42.742;23.266;2024-03-06T13:58:02;95165.56;;;14.86;52.76
10652;BME280;5374;42.742;23.266;2024-03-06T14:00:49;95167.03;;;14.97;52.39
10652;BME280;5374;42.742;23.266;2024-03-06T14:03:37;95154.97;;;15.00;51.15
10652;BME280;5374;42.742;23.266;2024-03-06T14:06:25;95163.47;;;15.07;50.76
10652;BME280;5374;42.742;23.266;2024-03-06T14:09:13;95161.00;;;15.11;50.45
10652;BME280;5374;42.742;23.266;2024-03-06T14:12:01;95160.03;;;15.01;50.83
10652;BME280;5374;42.742;23.266;2024-03-06T14:14:48;95153.03;;;15.05;50.12
10652;BME280;5374;42.742;23.266;2024-03-06T14:17:35;95174.03;;;15.17;50.70
10652;BME280;5374;42.742;23.266;2024-03-06T14:20:22;95180.25;;;15.13;50.48
10652;BME280;5374;42.742;23.266;2024-03-06T14:23:10;95176.03;;;15.07;50.80
10652;BME280;5374;42.742;23.266;2024-03-06T14:25:59;95173.34;;;15.07;50.27
10652;BME280;5374;42.742;23.266;2024-03-06T14:28:47;95170.16;;;15.04;50.50
10652;BME280;5374;42.742;23.266;2024-03-06T14:31:35;95168.09;;;14.96;50.69
10652;BME280;5374;42.742;23.266;2024-03-06T14:34:23;95169.19;;;14.95;50.99
10652;BME280;5374;42.742;23.266;2024-03-06T14:37:10;95171.47;;;14.83;52.99
10652;BME280;5374;42.742;23.266;2024-03-06T14:39:57;95184.03;;;14.83;54.44
10652;BME280;5374;42.742;23.266;2024-03-06T14:42:46;95178.84;;;14.67;54.39
10652;BME280;5374;42.742;23.266;2024-03-06T14:45:33;95184.53;;;14.56;57.17
10652;BME280;5374;42.742;23.266;2024-03-06T14:48:20;95174.78;;;14.41;61.14
10652;BME280;5374;42.742;23.266;2024-03-06T14:51:07;95154.97;;;14.08;63.59